createdAt,value
2023-01-31T00:00:33.899Z,97542.75
2023-01-31T00:03:01.731Z,97541.98
2023-01-31T00:05:29.955Z,97542.75
2023-01-31T00:07:58.640Z,97545.83
2023-01-31T00:10:26.581Z,97543.23
2023-01-31T00:12:54.980Z,97542.98
2023-01-31T00:15:22.899Z,97544.40
2023-01-31T00:17:50.929Z,97545.73
2023-01-31T00:20:18.937Z,97546.27
2023-01-31T00:22:47.085Z,97549.82
2023-01-31T00:25:15.384Z,97546.19
2023-01-31T00:27:43.292Z,97543.91
2023-01-31T00:30:12.881Z,97545.66
2023-01-31T00:32:40.816Z,97539.29
2023-01-31T00:35:08.891Z,97543.11
2023-01-31T00:37:36.987Z,97543.20
2023-01-31T00:40:06.608Z,97540.90
2023-01-31T00:42:34.742Z,97543.67
2023-01-31T00:45:03.514Z,97543.98
2023-01-31T00:47:31.962Z,97544.88
2023-01-31T00:50:00.605Z,97540.58
2023-01-31T00:52:28.822Z,97544.77
2023-01-31T00:54:58.143Z,97545.89
2023-01-31T00:57:26.522Z,97545.14
2023-01-31T00:59:55.515Z,97549.20
2023-01-31T01:02:23.470Z,97549.79
2023-01-31T01:04:52.070Z,97552.72
2023-01-31T01:07:19.898Z,97546.05
2023-01-31T01:09:47.862Z,97542.32
2023-01-31T01:12:15.721Z,97540.67
2023-01-31T01:14:45.689Z,97543.62
2023-01-31T01:17:13.604Z,97542.52
2023-01-31T01:19:41.744Z,97544.31
2023-01-31T01:22:09.896Z,97544.90
2023-01-31T01:24:37.876Z,97544.73
2023-01-31T01:27:05.935Z,97545.64
2023-01-31T01:29:34.291Z,97547.51
2023-01-31T01:32:02.544Z,97545.85
2023-01-31T01:34:30.869Z,97545.64
2023-01-31T01:36:58.934Z,97547.17
2023-01-31T01:39:30.468Z,97549.04
2023-01-31T01:41:59.155Z,97550.89
2023-01-31T01:44:45.749Z,97548.96
2023-01-31T01:47:41.752Z,97550.65
2023-01-31T01:50:19.103Z,97545.81
2023-01-31T01:53:11.001Z,97549.00
2023-01-31T01:55:40.282Z,97551.08
2023-01-31T01:58:17.207Z,97550.23
2023-01-31T02:00:45.386Z,97547.40
2023-01-31T02:03:13.552Z,97550.59
2023-01-31T02:05:50.055Z,97549.58
2023-01-31T02:08:18.667Z,97549.45
2023-01-31T02:11:11.566Z,97550.54
2023-01-31T02:13:40.968Z,97546.83
2023-01-31T02:16:16.119Z,97549.21
2023-01-31T02:18:44.637Z,97548.42
2023-01-31T02:21:31.607Z,97555.64
2023-01-31T02:24:06.272Z,97555.67
2023-01-31T02:27:15.456Z,97554.90
2023-01-31T02:29:54.590Z,97558.27
2023-01-31T02:32:28.747Z,97554.27
2023-01-31T02:35:05.170Z,97554.94
2023-01-31T02:38:29.077Z,97558.25
2023-01-31T02:41:10.234Z,97558.01
2023-01-31T02:44:04.835Z,97557.91
2023-01-31T02:46:44.979Z,97562.70
2023-01-31T02:49:34.728Z,97568.39
2023-01-31T02:52:21.662Z,97563.33
2023-01-31T02:55:21.390Z,97565.73
2023-01-31T02:57:50.196Z,97566.73
2023-01-31T03:00:19.619Z,97572.48
2023-01-31T03:02:48.237Z,97571.77
2023-01-31T03:05:18.694Z,97572.84
2023-01-31T03:07:50.481Z,97575.01
2023-01-31T03:10:32.948Z,97575.64
2023-01-31T03:13:31.846Z,97572.29
2023-01-31T03:16:19.416Z,97573.52
2023-01-31T03:19:01.997Z,97572.82
2023-01-31T03:21:36.782Z,97571.38
2023-01-31T03:24:05.022Z,97569.69
2023-01-31T03:26:33.939Z,97571.54
2023-01-31T03:29:02.734Z,97575.85
2023-01-31T03:31:37.535Z,97573.34
2023-01-31T03:34:08.290Z,97577.27
2023-01-31T03:36:49.983Z,97582.42
2023-01-31T03:39:52.631Z,97580.20
2023-01-31T03:42:26.552Z,97582.79
2023-01-31T03:45:24.479Z,97582.17
2023-01-31T03:47:56.349Z,97583.22
2023-01-31T03:50:41.855Z,97584.79
2023-01-31T03:53:39.964Z,97580.46
2023-01-31T03:56:18.648Z,97585.82
2023-01-31T03:58:51.787Z,97588.85
2023-01-31T04:01:19.988Z,97591.09
2023-01-31T04:03:54.383Z,97591.14
2023-01-31T04:06:22.261Z,97590.82
2023-01-31T04:08:50.189Z,97594.05
2023-01-31T04:11:20.428Z,97595.96
2023-01-31T04:13:48.741Z,97599.53
2023-01-31T04:16:18.444Z,97594.05
2023-01-31T04:18:46.388Z,97597.94
2023-01-31T04:21:15.505Z,97601.61
2023-01-31T04:23:43.469Z,97602.34
2023-01-31T04:26:11.554Z,97603.40
2023-01-31T04:28:40.327Z,97600.16
2023-01-31T04:31:08.326Z,97605.46
2023-01-31T04:33:36.683Z,97604.55
2023-01-31T04:36:05.575Z,97609.55
2023-01-31T04:38:33.421Z,97612.37
2023-01-31T04:41:04.300Z,97613.91
2023-01-31T04:43:33.737Z,97609.81
2023-01-31T04:46:01.632Z,97618.64
2023-01-31T04:50:35.700Z,97615.63
2023-01-31T04:53:04.884Z,97615.95
2023-01-31T04:55:36.446Z,97617.21
2023-01-31T04:58:06.620Z,97614.23
2023-01-31T05:00:34.984Z,97620.02
2023-01-31T05:03:03.725Z,97624.60
2023-01-31T05:05:36.339Z,97622.77
2023-01-31T05:08:05.602Z,97626.81
2023-01-31T05:10:34.771Z,97629.85
2023-01-31T05:13:02.695Z,97628.15
2023-01-31T05:15:32.939Z,97630.39
2023-01-31T05:18:04.557Z,97631.23
2023-01-31T05:20:38.427Z,97633.45
2023-01-31T05:23:07.148Z,97630.00
2023-01-31T05:25:36.072Z,97634.41
2023-01-31T05:28:04.738Z,97642.29
2023-01-31T05:30:33.121Z,97645.11
2023-01-31T05:33:01.770Z,97645.15
2023-01-31T05:35:29.830Z,97644.99
2023-01-31T05:37:58.720Z,97644.35
2023-01-31T05:40:26.792Z,97645.83
2023-01-31T05:42:56.434Z,97648.92
2023-01-31T05:45:24.489Z,97651.04
2023-01-31T05:47:52.802Z,97651.14
2023-01-31T05:50:20.757Z,97654.13
2023-01-31T05:52:56.839Z,97656.25
2023-01-31T05:55:24.835Z,97660.14
2023-01-31T05:57:53.842Z,97665.56
2023-01-31T06:00:22.663Z,97672.48
2023-01-31T06:02:50.961Z,97671.04
2023-01-31T06:05:20.418Z,97669.71
2023-01-31T06:07:48.899Z,97669.45
2023-01-31T06:10:19.608Z,97673.84
2023-01-31T06:12:48.296Z,97678.05
2023-01-31T06:15:18.652Z,97682.52
2023-01-31T06:17:47.313Z,97683.63
2023-01-31T06:20:20.409Z,97682.95
2023-01-31T06:22:48.341Z,97678.90
2023-01-31T06:25:16.312Z,97685.45
2023-01-31T06:27:44.952Z,97684.59
2023-01-31T06:30:13.455Z,97685.17
2023-01-31T06:32:41.405Z,97685.24
2023-01-31T06:35:09.959Z,97686.66
2023-01-31T06:37:38.266Z,97689.44
2023-01-31T06:40:06.800Z,97692.09
2023-01-31T06:42:35.300Z,97693.35
2023-01-31T06:45:04.209Z,97694.46
2023-01-31T06:47:32.661Z,97698.83
2023-01-31T06:50:00.755Z,97703.89
2023-01-31T06:52:30.588Z,97710.56
2023-01-31T06:54:58.526Z,97715.14
2023-01-31T06:57:26.445Z,97712.21
2023-01-31T06:59:54.318Z,97708.23
2023-01-31T07:02:22.331Z,97711.45
2023-01-31T07:04:51.246Z,97715.94
2023-01-31T07:07:23.867Z,97713.48
2023-01-31T07:09:52.332Z,97714.00
2023-01-31T07:12:20.718Z,97717.69
2023-01-31T07:14:48.610Z,97722.84
2023-01-31T07:17:16.783Z,97729.38
2023-01-31T07:19:45.894Z,97728.72
2023-01-31T07:22:13.756Z,97733.46
2023-01-31T07:24:41.614Z,97738.35
2023-01-31T07:27:13.229Z,97735.85
2023-01-31T07:29:41.249Z,97737.92
2023-01-31T07:32:09.528Z,97733.61
2023-01-31T07:34:38.883Z,97736.42
2023-01-31T07:37:07.129Z,97733.77
2023-01-31T07:39:35.233Z,97736.27
2023-01-31T07:42:03.164Z,97742.39
2023-01-31T07:44:32.099Z,97747.64
2023-01-31T07:47:00.164Z,97747.11
2023-01-31T07:49:29.007Z,97750.20
2023-01-31T07:51:57.087Z,97751.27
2023-01-31T07:54:25.040Z,97749.52
2023-01-31T07:56:53.179Z,97749.98
2023-01-31T07:59:21.052Z,97748.02
2023-01-31T08:02:09.806Z,97746.55
2023-01-31T08:04:37.805Z,97750.11
2023-01-31T08:07:07.107Z,97751.92
2023-01-31T08:09:35.069Z,97761.01
2023-01-31T08:12:08.296Z,97762.33
2023-01-31T08:14:36.210Z,97764.60
2023-01-31T08:17:04.281Z,97767.48
2023-01-31T08:19:32.867Z,97774.44
2023-01-31T08:22:01.618Z,97779.17
2023-01-31T08:24:30.767Z,97776.29
2023-01-31T08:26:59.050Z,97779.27
2023-01-31T08:29:27.219Z,97781.28
2023-01-31T08:31:55.281Z,97783.63
2023-01-31T08:34:28.084Z,97788.93
2023-01-31T08:36:56.056Z,97792.11
2023-01-31T08:39:24.059Z,97792.76
2023-01-31T08:41:52.077Z,97795.14
2023-01-31T08:44:20.427Z,97796.84
2023-01-31T08:46:48.704Z,97799.66
2023-01-31T08:49:16.753Z,97798.66
2023-01-31T08:51:45.298Z,97798.59
2023-01-31T08:54:13.883Z,97794.23
2023-01-31T08:56:41.807Z,97792.35
2023-01-31T08:59:11.041Z,97793.36
2023-01-31T09:01:38.957Z,97794.27
2023-01-31T10:17:15.486Z,97802.71
2023-01-31T10:19:55.803Z,97800.38
2023-01-31T10:22:58.757Z,97799.46
2023-01-31T10:26:15.016Z,97805.66
2023-01-31T10:29:02.429Z,97804.46
2023-01-31T10:31:56.809Z,97801.24
2023-01-31T10:34:27.939Z,97801.05
2023-01-31T10:37:16.026Z,97804.30
2023-01-31T10:40:04.286Z,97802.87
2023-01-31T10:42:33.081Z,97805.92
2023-01-31T10:45:11.645Z,97799.36
2023-01-31T10:47:44.363Z,97797.52
2023-01-31T10:50:14.045Z,97793.14
2023-01-31T10:52:49.213Z,97793.35
2023-01-31T10:55:51.176Z,97795.36
2023-01-31T10:58:18.991Z,97797.17
2023-01-31T11:00:48.553Z,97791.18
2023-01-31T11:03:15.273Z,97794.70
2023-01-31T11:05:51.766Z,97793.73
2023-01-31T11:08:31.011Z,97796.95
2023-01-31T11:10:58.211Z,97795.73
2023-01-31T11:13:24.815Z,97794.25
2023-01-31T11:15:55.146Z,97796.56
2023-01-31T11:18:36.174Z,97799.58
2023-01-31T11:21:02.885Z,97799.05
2023-01-31T11:23:31.144Z,97796.60
2023-01-31T11:25:57.733Z,97798.73
2023-01-31T11:28:42.209Z,97798.36
2023-01-31T11:31:37.458Z,97796.96
2023-01-31T11:34:05.054Z,97797.70
2023-01-31T11:36:42.073Z,97794.51
2023-01-31T11:39:33.760Z,97797.02
2023-01-31T11:42:06.659Z,97793.39
2023-01-31T11:44:33.251Z,97796.90
2023-01-31T11:47:07.229Z,97796.70
2023-01-31T11:49:36.204Z,97793.02
2023-01-31T11:52:21.276Z,97793.40
2023-01-31T11:54:50.739Z,97793.65
2023-01-31T11:57:25.335Z,97794.36
2023-01-31T11:59:54.422Z,97797.02
2023-01-31T12:02:26.402Z,97803.08
2023-01-31T12:04:53.098Z,97802.27
2023-01-31T12:07:24.779Z,97799.86
2023-01-31T12:09:51.575Z,97804.36
2023-01-31T12:12:24.489Z,97798.51
2023-01-31T12:14:51.079Z,97802.55
2023-01-31T12:17:18.472Z,97803.35
2023-01-31T12:19:51.222Z,97804.35
2023-01-31T12:22:32.288Z,97803.67
2023-01-31T12:25:20.603Z,97808.40
2023-01-31T12:28:01.985Z,97808.14
2023-01-31T12:30:48.539Z,97811.38
2023-01-31T12:33:30.465Z,97810.73
2023-01-31T12:36:32.532Z,97814.48
2023-01-31T12:39:32.248Z,97813.05
2023-01-31T12:42:33.035Z,97816.52
2023-01-31T12:45:15.146Z,97818.63
2023-01-31T12:48:10.415Z,97818.69
2023-01-31T12:51:14.253Z,97821.18
2023-01-31T12:53:50.384Z,97820.50
2023-01-31T12:56:26.182Z,97820.45
2023-01-31T12:59:15.949Z,97821.35
2023-01-31T13:01:47.517Z,97825.61
2023-01-31T13:04:33.161Z,97826.40
2023-01-31T13:07:08.997Z,97824.17
2023-01-31T13:09:36.474Z,97824.49
2023-01-31T13:12:14.424Z,97823.64
2023-01-31T13:14:48.766Z,97825.60
2023-01-31T13:17:21.700Z,97826.56
2023-01-31T13:19:56.675Z,97825.53
2023-01-31T13:22:46.917Z,97827.45
2023-01-31T13:25:37.059Z,97828.39
2023-01-31T13:28:12.276Z,97830.57
2023-01-31T13:30:42.090Z,97831.69
2023-01-31T13:33:17.934Z,97831.80
2023-01-31T13:35:45.190Z,97834.20
2023-01-31T13:38:14.530Z,97832.23
2023-01-31T13:41:01.309Z,97832.59
2023-01-31T13:43:27.856Z,97832.32
2023-01-31T13:46:00.460Z,97829.66
2023-01-31T13:48:37.646Z,97835.66
2023-01-31T13:51:20.425Z,97837.42
2023-01-31T13:53:49.236Z,97834.96
2023-01-31T13:56:24.887Z,97831.36
2023-01-31T13:58:51.750Z,97834.65
2023-01-31T14:01:21.414Z,97832.37
2023-01-31T14:04:14.106Z,97832.04
2023-01-31T14:06:56.005Z,97838.73
2023-01-31T14:09:27.016Z,97841.63
2023-01-31T14:12:16.982Z,97841.89
2023-01-31T14:14:55.325Z,97842.41
2023-01-31T14:17:27.892Z,97843.05
2023-01-31T14:19:54.951Z,97845.30
2023-01-31T14:22:26.204Z,97845.89
2023-01-31T14:24:52.945Z,97849.19
2023-01-31T14:27:23.660Z,97853.02
2023-01-31T14:29:57.446Z,97850.42
2023-01-31T14:32:46.942Z,97853.42
2023-01-31T14:35:14.322Z,97857.05
2023-01-31T14:38:03.417Z,97856.02
2023-01-31T14:40:51.531Z,97856.91
2023-01-31T14:43:30.863Z,97842.21
2023-01-31T14:46:16.316Z,97856.59
2023-01-31T14:49:17.479Z,97856.29
2023-01-31T14:52:04.266Z,97852.55
2023-01-31T14:54:53.305Z,97854.38
2023-01-31T14:57:27.460Z,97860.83
2023-01-31T14:59:58.060Z,97866.84
2023-01-31T15:02:30.846Z,97872.10
2023-01-31T15:05:19.475Z,97872.30
2023-01-31T15:07:58.655Z,97869.92
2023-01-31T15:10:57.588Z,97873.59
2023-01-31T15:13:33.236Z,97875.77
2023-01-31T15:16:25.138Z,97873.61
2023-01-31T15:18:59.213Z,97882.74
2023-01-31T15:21:28.376Z,97883.11
2023-01-31T15:23:56.835Z,97885.84
2023-01-31T15:26:24.524Z,97889.67
2023-01-31T15:28:51.107Z,97889.60
2023-01-31T15:31:24.579Z,97892.16
2023-01-31T15:33:52.913Z,97894.66
2023-01-31T15:36:25.885Z,97899.13
2023-01-31T15:38:58.047Z,97896.61
2023-01-31T15:41:26.567Z,97897.72
2023-01-31T15:43:54.271Z,97901.61
2023-01-31T15:46:26.913Z,97900.66
2023-01-31T15:48:53.702Z,97904.66
2023-01-31T15:51:21.561Z,97908.08
2023-01-31T15:53:48.608Z,97910.34
2023-01-31T15:56:23.966Z,97908.48
2023-01-31T15:58:55.300Z,97910.20
2023-01-31T16:01:22.164Z,97909.34
2023-01-31T16:03:53.819Z,97909.60
2023-01-31T16:06:33.957Z,97915.08
2023-01-31T16:09:02.457Z,97913.48
2023-01-31T16:11:33.246Z,97911.78
2023-01-31T16:14:02.408Z,97912.04
2023-01-31T16:16:29.231Z,97912.30
2023-01-31T16:18:57.448Z,97914.06
2023-01-31T16:21:31.395Z,97914.44
2023-01-31T16:24:10.731Z,97915.98
2023-01-31T16:26:38.845Z,97913.74
2023-01-31T16:29:09.979Z,97916.03
2023-01-31T16:31:44.556Z,97918.11
2023-01-31T16:34:27.790Z,97921.79
2023-01-31T16:37:02.119Z,97920.92
2023-01-31T16:39:40.631Z,97922.70
2023-01-31T16:42:21.632Z,97923.02
2023-01-31T16:44:48.349Z,97927.65
2023-01-31T16:47:39.441Z,97926.16
2023-01-31T16:50:36.747Z,97924.98
2023-01-31T16:53:16.671Z,97932.81
2023-01-31T16:55:44.964Z,97929.83
2023-01-31T16:58:12.526Z,97928.25
2023-01-31T17:00:41.016Z,97927.34
2023-01-31T17:03:17.202Z,97931.75
2023-01-31T17:05:47.732Z,97932.98
2023-01-31T17:08:16.553Z,97929.77
2023-01-31T17:10:44.754Z,97936.85
2023-01-31T17:13:22.985Z,97933.06
2023-01-31T17:15:50.533Z,97934.46
2023-01-31T17:18:17.302Z,97933.13
2023-01-31T17:20:45.869Z,97935.64
2023-01-31T17:23:13.168Z,97938.49
2023-01-31T17:25:40.040Z,97937.48
2023-01-31T17:28:06.732Z,97938.28
2023-01-31T17:30:33.710Z,97941.27
2023-01-31T17:33:00.932Z,97942.97
2023-01-31T17:35:38.233Z,97946.70
2023-01-31T17:38:05.109Z,97949.04
2023-01-31T17:40:31.953Z,97946.77
2023-01-31T17:43:01.225Z,97943.35
2023-01-31T17:45:28.210Z,97944.52
2023-01-31T17:47:54.815Z,97946.80
2023-01-31T17:50:23.178Z,97944.67
2023-01-31T17:52:49.700Z,97949.80
2023-01-31T17:55:19.253Z,97944.13
2023-01-31T17:57:46.489Z,97946.48
2023-01-31T18:00:14.789Z,97946.36
2023-01-31T18:02:43.547Z,97947.42
2023-01-31T18:05:18.658Z,97944.98
2023-01-31T18:07:50.599Z,97948.67
2023-01-31T18:10:17.186Z,97949.67
2023-01-31T18:12:44.467Z,97947.86
2023-01-31T18:15:11.474Z,97950.40
2023-01-31T18:17:38.324Z,97942.13
2023-01-31T18:20:06.185Z,97949.62
2023-01-31T18:22:33.556Z,97953.23
2023-01-31T18:25:00.543Z,97949.19
2023-01-31T18:27:27.157Z,97952.48
2023-01-31T18:29:55.069Z,97949.61
2023-01-31T18:32:21.840Z,97951.15
2023-01-31T18:34:50.322Z,97951.36
2023-01-31T18:37:19.400Z,97944.60
2023-01-31T18:39:49.937Z,97947.96
2023-01-31T18:42:20.081Z,97952.38
2023-01-31T18:44:46.648Z,97953.21
2023-01-31T18:47:13.848Z,97958.55
2023-01-31T18:49:40.684Z,97957.53
2023-01-31T18:52:10.808Z,97957.73
2023-01-31T18:54:38.006Z,97957.86
2023-01-31T18:57:05.105Z,97962.81
2023-01-31T18:59:34.441Z,97958.34
2023-01-31T19:02:01.860Z,97963.13
2023-01-31T19:04:30.481Z,97960.94
2023-01-31T19:07:03.088Z,97963.02
2023-01-31T19:09:30.392Z,97964.13
2023-01-31T19:11:59.325Z,97962.23
2023-01-31T19:14:26.260Z,97968.14
2023-01-31T19:16:57.356Z,97967.65
2023-01-31T19:19:24.503Z,97967.88
2023-01-31T19:21:53.559Z,97968.52
2023-01-31T19:24:21.470Z,97967.11
2023-01-31T19:27:05.205Z,97970.05
2023-01-31T19:29:35.226Z,97970.05
2023-01-31T19:32:02.124Z,97970.85
2023-01-31T19:34:29.075Z,97967.02
2023-01-31T19:36:55.829Z,97970.73
2023-01-31T19:39:22.628Z,97969.82
2023-01-31T19:41:49.435Z,97970.83
2023-01-31T19:44:16.648Z,97973.54
2023-01-31T19:46:43.551Z,97972.74
2023-01-31T19:49:22.083Z,97978.55
2023-01-31T19:51:50.254Z,97973.23
2023-01-31T19:54:22.388Z,97974.41
2023-01-31T19:56:49.808Z,97975.30
2023-01-31T19:59:16.689Z,97973.70
2023-01-31T20:01:43.837Z,97976.42
2023-01-31T20:04:11.863Z,97977.85
2023-01-31T20:06:38.794Z,97975.89
2023-01-31T20:09:08.797Z,97978.17
2023-01-31T20:11:36.034Z,97980.10
2023-01-31T20:14:03.987Z,97978.77
2023-01-31T20:16:33.909Z,97981.00
2023-01-31T20:19:05.907Z,97976.85
2023-01-31T20:21:34.246Z,97984.25
2023-01-31T20:24:01.763Z,97980.73
2023-01-31T20:26:30.240Z,97980.16
2023-01-31T20:28:57.533Z,97984.64
2023-01-31T20:31:24.926Z,97980.85
2023-01-31T20:33:54.292Z,97979.35
2023-01-31T20:36:24.274Z,97980.05
2023-01-31T20:38:51.355Z,97980.58
2023-01-31T20:41:18.203Z,97982.55
2023-01-31T20:43:46.872Z,97982.71
2023-01-31T20:46:15.376Z,97988.25
2023-01-31T20:48:43.848Z,97985.05
2023-01-31T20:51:11.527Z,97985.95
2023-01-31T20:53:38.269Z,97985.52
2023-01-31T20:56:07.917Z,97985.16
2023-01-31T20:58:37.824Z,97985.64
2023-01-31T21:01:06.324Z,97986.55
2023-01-31T21:03:34.247Z,97985.96
2023-01-31T21:06:01.178Z,97985.37
2023-01-31T21:08:28.443Z,97986.60
2023-01-31T21:10:56.588Z,97986.27
2023-01-31T21:13:24.147Z,97987.55
2023-01-31T21:15:55.685Z,97985.20
2023-01-31T21:18:24.946Z,97988.62
2023-01-31T21:20:51.719Z,97992.77
2023-01-31T21:23:18.307Z,97995.17
2023-01-31T21:25:45.025Z,97997.36
2023-01-31T21:28:17.386Z,98000.18
2023-01-31T21:30:44.137Z,97999.42
2023-01-31T21:33:10.798Z,97997.24
2023-01-31T21:35:37.326Z,98000.02
2023-01-31T21:38:03.816Z,97992.88
2023-01-31T21:40:30.461Z,97994.98
2023-01-31T21:42:57.032Z,97994.01
2023-01-31T21:45:38.782Z,97992.35
2023-01-31T21:48:28.595Z,97990.00
2023-01-31T21:50:56.114Z,97988.73
2023-01-31T21:53:22.601Z,97990.33
2023-01-31T21:55:49.141Z,97988.23
2023-01-31T21:58:15.864Z,97988.40
2023-01-31T22:00:43.248Z,97990.11
2023-01-31T22:03:10.396Z,97988.83
2023-01-31T22:05:37.809Z,97987.40
2023-01-31T22:08:04.700Z,97991.07
2023-01-31T22:10:33.692Z,97995.55
2023-01-31T22:13:01.101Z,97992.98
2023-01-31T22:15:27.764Z,97990.27
2023-01-31T22:17:54.298Z,97987.88
2023-01-31T22:20:21.468Z,97985.11
2023-01-31T22:24:01.280Z,97985.55
2023-01-31T22:26:34.136Z,97987.02
2023-01-31T22:29:03.555Z,97977.84
2023-01-31T22:31:31.775Z,97977.83
2023-01-31T22:34:01.019Z,97978.25
2023-01-31T22:36:29.338Z,97973.34
2023-01-31T22:38:57.307Z,97969.45
2023-01-31T22:41:25.462Z,97968.70
2023-01-31T22:43:56.093Z,97968.45
2023-01-31T22:46:26.066Z,97967.44
2023-01-31T22:48:54.773Z,97968.70
2023-01-31T22:51:24.333Z,97969.94
2023-01-31T22:53:54.646Z,97970.89
2023-01-31T22:56:24.582Z,97972.87
2023-01-31T22:59:00.234Z,97972.55
2023-01-31T23:01:35.125Z,97971.48
2023-01-31T23:04:04.819Z,97969.67
2023-01-31T23:06:33.099Z,97967.75
2023-01-31T23:09:01.482Z,97967.00
2023-01-31T23:11:29.766Z,97961.89
2023-01-31T23:13:58.137Z,97968.45
2023-01-31T23:16:45.437Z,97965.95
2023-01-31T23:19:13.527Z,97960.19
2023-01-31T23:21:42.851Z,97960.30
2023-01-31T23:24:12.499Z,97957.85
2023-01-31T23:26:40.627Z,97959.71
2023-01-31T23:29:08.673Z,97955.98
2023-01-31T23:31:37.501Z,97960.23
2023-01-31T23:34:07.391Z,97958.33
2023-01-31T23:36:36.151Z,97956.15
2023-01-31T23:39:04.512Z,97956.62
2023-01-31T23:41:32.861Z,97953.33
2023-01-31T23:44:01.062Z,97953.23
2023-01-31T23:46:29.097Z,97950.83
2023-01-31T23:48:57.111Z,97945.48
2023-01-31T23:51:26.769Z,97944.64
2023-01-31T23:53:55.830Z,97943.68
2023-01-31T23:56:24.110Z,97946.02
2023-01-31T23:58:53.407Z,97946.02
